lundi 17 mars 2014

ALERTE SPOTTING 17/03/14

321 EC-IXD Iberia (nouvelles couleurs)
   dpt IB3417  08h15

32A EC-LVP Vueling.com (couleur Linking Europe)
   VY8834/VY8835   09h10/09h45

Manque les prévisions/immats UX / BE / certains IB / AZ / TP / BA / AH
*** Heures en Local Time **
Prévisions matinales soumises à modifications de dernières minute. Voir le log du mois pour la version 'définitive' de la journée: http://www.airkalo.com/ORLYAVIATION/Logdumois.html

le TAF de la journée:



METAR: LFPO 170330Z 32004KT 8000 BKN003 06/05 Q1023 BECMG BKN003=
TAF LONG: LFPO 162300Z 1700/1806 26005KT CAVOK BECMG 1700/1703 4000 BR
SCT004 PROB40 TEMPO 1703/1710 1200 BR OVC003 BECMG 1710/1713 9999 NSW
SCT020 PROB30 TEMPO 1803/1806 3000 BR=